createdAt,value
2023-02-28T06:03:09.391Z,500.00
2023-02-28T06:13:10.665Z,400.00
2023-02-28T08:08:21.319Z,576.00
2023-02-28T08:10:23.092Z,578.00
2023-02-28T08:16:50.272Z,500.00
2023-02-28T08:17:51.341Z,500.00
2023-02-28T08:18:50.245Z,500.00
2023-02-28T08:20:03.963Z,500.00
2023-02-28T08:20:51.242Z,500.00
2023-02-28T08:21:51.259Z,500.00
2023-02-28T08:22:50.232Z,500.00
2023-02-28T08:23:51.231Z,500.00
2023-02-28T08:24:51.219Z,500.00
2023-02-28T08:25:51.240Z,511.00
2023-02-28T08:26:51.237Z,515.00
2023-02-28T08:27:51.196Z,539.00
2023-02-28T08:30:24.454Z,500.00
2023-02-28T08:31:24.503Z,500.00
2023-02-28T08:33:43.928Z,500.00
2023-02-28T08:34:46.981Z,500.00
2023-02-28T08:35:44.998Z,500.00
2023-02-28T08:38:03.311Z,500.00
2023-02-28T08:39:04.311Z,500.00
2023-02-28T08:40:04.272Z,500.00
2023-02-28T08:41:03.326Z,500.00
2023-02-28T08:44:42.093Z,500.00
2023-02-28T08:45:42.151Z,500.00
2023-02-28T08:46:42.094Z,500.00
2023-02-28T08:47:42.078Z,500.00
2023-02-28T08:48:43.061Z,500.00
2023-02-28T08:49:43.067Z,504.00
2023-02-28T08:50:46.442Z,500.00
2023-02-28T08:51:43.035Z,500.00
2023-02-28T08:52:43.028Z,500.00
2023-02-28T08:53:43.031Z,486.00
2023-02-28T08:54:43.017Z,486.00
2023-02-28T08:55:42.026Z,477.00
2023-02-28T08:56:43.127Z,504.00
2023-02-28T08:57:43.004Z,506.00
2023-02-28T08:58:43.002Z,508.00
2023-02-28T08:59:42.989Z,500.00
2023-02-28T09:00:43.033Z,507.00
2023-02-28T09:01:43.007Z,519.00
2023-02-28T09:02:42.954Z,519.00
2023-02-28T09:03:43.015Z,515.00
2023-02-28T09:04:42.962Z,527.00
2023-02-28T09:05:42.943Z,527.00
2023-02-28T09:07:42.966Z,536.00
2023-02-28T09:08:42.918Z,537.00
2023-02-28T09:09:43.069Z,541.00
2023-02-28T09:10:42.909Z,545.00
2023-02-28T09:11:42.915Z,543.00
2023-02-28T09:12:42.942Z,543.00
2023-02-28T09:13:41.978Z,544.00
2023-02-28T09:14:42.879Z,545.00
2023-02-28T09:15:42.882Z,543.00
2023-02-28T09:16:42.887Z,549.00
2023-02-28T09:17:45.653Z,550.00
2023-02-28T09:18:42.861Z,550.00
2023-02-28T09:19:42.901Z,546.00
2023-02-28T09:20:41.847Z,545.00
2023-02-28T09:21:41.842Z,545.00
2023-02-28T09:22:42.826Z,547.00
2023-02-28T09:23:42.815Z,546.00
2023-02-28T09:24:42.886Z,548.00
2023-02-28T09:25:42.834Z,547.00
2023-02-28T09:26:55.835Z,549.00
2023-02-28T09:27:43.784Z,550.00
2023-02-28T09:28:41.845Z,550.00
2023-02-28T09:29:41.799Z,550.00
2023-02-28T09:30:42.830Z,551.00
2023-02-28T09:31:42.788Z,552.00
2023-02-28T09:32:42.767Z,561.00
2023-02-28T09:33:42.767Z,553.00
2023-02-28T09:34:42.866Z,553.00
2023-02-28T09:35:42.745Z,556.00
2023-02-28T09:36:45.730Z,554.00
2023-02-28T09:38:42.739Z,556.00
2023-02-28T09:39:42.739Z,555.00
2023-02-28T09:40:42.709Z,554.00
2023-02-28T09:41:42.707Z,545.00
2023-02-28T09:42:42.689Z,549.00
2023-02-28T09:43:42.688Z,552.00
2023-02-28T09:44:43.925Z,546.00
2023-02-28T09:45:43.319Z,552.00
2023-02-28T09:46:42.660Z,554.00
2023-02-28T09:47:42.664Z,545.00
2023-02-28T09:48:42.652Z,549.00
2023-02-28T09:50:41.640Z,545.00
2023-02-28T09:55:47.038Z,527.00
2023-02-28T09:56:42.832Z,527.00
2023-02-28T09:57:42.871Z,527.00
2023-02-28T09:58:42.914Z,528.00
2023-02-28T09:59:42.937Z,526.00
2023-02-28T10:00:42.987Z,523.00
2023-02-28T10:01:43.050Z,525.00
2023-02-28T10:02:43.007Z,519.00
2023-02-28T10:03:43.057Z,520.00
2023-02-28T10:04:43.107Z,519.00
2023-02-28T10:06:43.272Z,521.00
2023-02-28T10:07:43.168Z,521.00
2023-02-28T10:08:43.209Z,522.00
2023-02-28T10:10:43.257Z,517.00
2023-02-28T10:13:43.323Z,512.00
2023-02-28T10:14:43.360Z,513.00
2023-02-28T10:15:43.399Z,513.00
2023-02-28T10:17:55.090Z,508.00
2023-02-28T10:18:43.432Z,509.00
2023-02-28T10:19:43.432Z,509.00
2023-02-28T10:20:43.430Z,509.00
2023-02-28T10:21:43.420Z,509.00
2023-02-28T10:22:43.408Z,505.00
2023-02-28T10:23:43.414Z,509.00
2023-02-28T10:24:43.400Z,509.00
2023-02-28T10:25:43.399Z,505.00
2023-02-28T10:28:43.373Z,504.00
2023-02-28T10:29:43.361Z,510.00
2023-02-28T10:30:43.469Z,511.00
2023-02-28T10:34:43.322Z,507.00
2023-02-28T10:35:43.463Z,503.00
2023-02-28T10:38:43.327Z,509.00
2023-02-28T10:39:43.309Z,505.00
2023-02-28T10:40:43.308Z,508.00
2023-02-28T10:41:43.311Z,508.00
2023-02-28T10:42:43.278Z,509.00
2023-02-28T10:43:43.281Z,504.00
2023-02-28T10:44:43.256Z,508.00
2023-02-28T10:46:43.354Z,509.00
2023-02-28T10:47:43.263Z,508.00
2023-02-28T10:49:43.239Z,502.00
2023-02-28T10:50:43.334Z,501.00
2023-02-28T10:51:43.219Z,514.00
2023-02-28T10:52:43.223Z,512.00
2023-02-28T10:54:43.198Z,508.00
2023-02-28T10:55:43.220Z,511.00
2023-02-28T10:57:43.179Z,504.00
2023-02-28T10:58:43.201Z,506.00
2023-02-28T10:59:43.225Z,502.00
2023-02-28T11:00:43.312Z,505.00
2023-02-28T11:01:43.407Z,509.00
2023-02-28T11:02:43.345Z,507.00
2023-02-28T11:04:43.607Z,507.00
2023-02-28T11:06:43.553Z,508.00
2023-02-28T11:07:52.886Z,508.00
2023-02-28T11:08:43.554Z,508.00
2023-02-28T11:10:43.552Z,509.00
2023-02-28T11:11:43.542Z,509.00
2023-02-28T11:12:52.278Z,510.00
2023-02-28T11:13:43.536Z,508.00
2023-02-28T11:14:43.513Z,509.00
2023-02-28T11:15:43.541Z,507.00
2023-02-28T11:16:43.511Z,510.00
2023-02-28T11:17:43.483Z,507.00
2023-02-28T11:18:43.486Z,505.00
2023-02-28T11:19:43.497Z,508.00
2023-02-28T11:20:43.490Z,508.00
2023-02-28T11:21:43.468Z,506.00
2023-02-28T11:22:43.465Z,507.00
2023-02-28T11:23:43.456Z,505.00
2023-02-28T11:25:43.439Z,505.00
2023-02-28T11:26:43.447Z,509.00
2023-02-28T11:27:43.432Z,503.00
2023-02-28T11:28:43.441Z,505.00
2023-02-28T11:29:43.416Z,506.00
2023-02-28T11:30:45.546Z,507.00
2023-02-28T11:31:43.461Z,507.00
2023-02-28T11:32:43.451Z,507.00
2023-02-28T11:33:43.441Z,506.00
2023-02-28T11:34:43.398Z,505.00
2023-02-28T11:35:43.384Z,508.00
2023-02-28T11:36:43.383Z,505.00
2023-02-28T11:37:43.358Z,504.00
2023-02-28T11:39:43.340Z,509.00
2023-02-28T11:40:43.329Z,505.00
2023-02-28T11:41:43.835Z,509.00
2023-02-28T11:42:43.329Z,504.00
2023-02-28T11:43:43.323Z,508.00
2023-02-28T11:45:43.311Z,509.00
2023-02-28T11:46:43.398Z,509.00
2023-02-28T11:47:43.331Z,510.00
2023-02-28T11:48:43.295Z,507.00
2023-02-28T11:49:43.356Z,513.00
2023-02-28T11:53:43.269Z,514.00
2023-02-28T11:54:43.248Z,517.00
2023-02-28T11:56:43.261Z,515.00
2023-02-28T11:58:43.204Z,521.00
2023-02-28T11:59:43.251Z,529.00
2023-02-28T12:03:43.191Z,544.00
2023-02-28T12:04:43.246Z,546.00
2023-02-28T12:06:43.362Z,544.00
2023-02-28T12:07:43.453Z,548.00
2023-02-28T12:08:43.548Z,551.00
2023-02-28T12:09:43.508Z,557.00
2023-02-28T12:10:43.646Z,560.00
2023-02-28T12:11:43.600Z,557.00
2023-02-28T12:12:43.673Z,565.00
2023-02-28T12:13:43.712Z,562.00
2023-02-28T12:14:42.758Z,563.00
2023-02-28T12:15:42.818Z,555.00
2023-02-28T12:16:42.909Z,563.00
2023-02-28T12:17:43.896Z,562.00
2023-02-28T12:18:43.983Z,565.00
2023-02-28T12:19:45.377Z,561.00
2023-02-28T12:20:43.222Z,561.00
2023-02-28T12:21:44.464Z,565.00
2023-02-28T12:22:44.336Z,564.00
2023-02-28T12:23:43.409Z,567.00
2023-02-28T12:24:44.564Z,566.00
2023-02-28T12:25:43.503Z,567.00
2023-02-28T12:26:44.559Z,565.00
2023-02-28T12:27:43.631Z,570.00
2023-02-28T12:28:44.646Z,571.00
2023-02-28T12:29:44.730Z,571.00
2023-02-28T12:30:44.829Z,574.00
2023-02-28T12:31:44.855Z,568.00
2023-02-28T12:32:44.894Z,569.00
2023-02-28T12:33:44.936Z,567.00
2023-02-28T12:34:43.992Z,568.00
2023-02-28T12:35:45.021Z,580.00
2023-02-28T12:36:44.391Z,574.00
2023-02-28T12:37:44.093Z,573.00
2023-02-28T12:38:45.088Z,570.00
2023-02-28T12:39:50.607Z,569.00
2023-02-28T12:40:45.176Z,569.00
2023-02-28T12:41:45.165Z,570.00
2023-02-28T12:42:44.101Z,570.00
2023-02-28T12:43:45.114Z,565.00
2023-02-28T12:44:44.097Z,564.00
2023-02-28T12:45:45.235Z,560.00
2023-02-28T12:46:45.173Z,561.00
2023-02-28T12:47:45.344Z,563.00
2023-02-28T12:48:45.063Z,556.00
2023-02-28T12:49:45.091Z,552.00
2023-02-28T12:50:45.051Z,554.00
2023-02-28T12:51:45.152Z,557.00
2023-02-28T12:52:45.076Z,553.00
2023-02-28T12:53:45.028Z,553.00
2023-02-28T12:54:44.017Z,552.00
2023-02-28T12:55:44.039Z,553.00
2023-02-28T12:56:45.072Z,554.00
2023-02-28T12:57:45.018Z,545.00
2023-02-28T12:58:44.997Z,550.00
2023-02-28T12:59:45.003Z,548.00
2023-02-28T13:00:44.986Z,553.00
2023-02-28T13:01:45.016Z,547.00
2023-02-28T13:02:45.089Z,547.00
2023-02-28T13:03:44.986Z,544.00
2023-02-28T13:04:44.989Z,546.00
2023-02-28T13:05:43.964Z,547.00
2023-02-28T13:06:43.949Z,548.00
2023-02-28T13:07:44.963Z,543.00
2023-02-28T13:08:44.927Z,540.00
2023-02-28T13:09:44.918Z,551.00
2023-02-28T13:10:44.920Z,543.00
2023-02-28T13:11:44.939Z,545.00
2023-02-28T13:12:45.391Z,544.00
2023-02-28T13:13:44.910Z,543.00
2023-02-28T13:14:44.886Z,541.00
2023-02-28T13:15:44.880Z,542.00
2023-02-28T13:16:45.000Z,543.00
2023-02-28T13:17:43.879Z,540.00
2023-02-28T13:18:44.862Z,543.00
2023-02-28T13:19:44.866Z,538.00
2023-02-28T13:20:43.834Z,544.00
2023-02-28T13:21:43.848Z,547.00
2023-02-28T13:22:44.866Z,544.00
2023-02-28T13:23:44.900Z,548.00
2023-02-28T13:24:44.916Z,538.00
2023-02-28T13:25:49.368Z,539.00
2023-02-28T13:26:44.939Z,539.00
2023-02-28T13:27:44.922Z,539.00
2023-02-28T13:28:43.937Z,540.00
2023-02-28T13:29:44.949Z,544.00
2023-02-28T13:30:45.088Z,537.00
2023-02-28T13:31:44.007Z,538.00
2023-02-28T13:32:45.025Z,544.00
2023-02-28T13:33:44.051Z,540.00
2023-02-28T13:34:45.098Z,533.00
2023-02-28T13:35:44.142Z,543.00
2023-02-28T13:36:45.132Z,535.00
2023-02-28T13:37:45.160Z,533.00
2023-02-28T13:38:44.160Z,536.00
2023-02-28T13:39:45.194Z,537.00
2023-02-28T13:40:44.206Z,539.00
2023-02-28T13:41:45.239Z,543.00
2023-02-28T13:42:45.293Z,544.00
2023-02-28T13:43:45.289Z,539.00
2023-02-28T13:44:45.347Z,538.00
2023-02-28T13:45:45.343Z,537.00
2023-02-28T13:46:44.369Z,538.00
2023-02-28T13:47:45.796Z,543.00
2023-02-28T13:48:45.975Z,538.00
2023-02-28T13:49:45.968Z,537.00
2023-02-28T13:50:45.957Z,538.00
2023-02-28T13:51:46.126Z,533.00
2023-02-28T13:53:47.796Z,542.00
2023-02-28T13:54:44.512Z,542.00
2023-02-28T13:55:45.957Z,541.00
2023-02-28T13:56:45.896Z,536.00
2023-02-28T13:57:45.951Z,532.00
2023-02-28T13:58:45.502Z,532.00
2023-02-28T13:59:46.142Z,536.00
2023-02-28T14:00:45.771Z,536.00
2023-02-28T14:01:46.036Z,533.00
2023-02-28T14:02:45.979Z,533.00
2023-02-28T14:03:45.489Z,530.00
2023-02-28T14:04:45.486Z,533.00
2023-02-28T14:05:45.871Z,530.00
2023-02-28T14:06:44.452Z,526.00
2023-02-28T14:07:45.509Z,535.00
2023-02-28T14:08:45.428Z,537.00
2023-02-28T14:09:45.426Z,537.00
2023-02-28T14:10:45.839Z,537.00
2023-02-28T14:11:45.430Z,536.00
2023-02-28T14:12:46.117Z,537.00
2023-02-28T14:13:46.146Z,530.00
2023-02-28T14:14:44.406Z,530.00
2023-02-28T14:15:45.869Z,534.00
2023-02-28T14:16:45.807Z,535.00
2023-02-28T14:17:45.534Z,532.00
2023-02-28T14:18:45.389Z,530.00
2023-02-28T14:19:45.507Z,526.00
2023-02-28T14:20:45.408Z,533.00
2023-02-28T14:21:45.586Z,526.00
2023-02-28T14:22:45.684Z,532.00
2023-02-28T14:23:45.743Z,529.00
2023-02-28T14:24:45.577Z,534.00
2023-02-28T14:25:45.320Z,526.00
2023-02-28T14:26:45.312Z,537.00
2023-02-28T14:27:45.349Z,528.00
2023-02-28T14:28:44.305Z,530.00
2023-02-28T14:29:44.295Z,535.00
2023-02-28T14:30:45.301Z,530.00
2023-02-28T14:31:45.345Z,532.00
2023-02-28T14:32:44.351Z,529.00
2023-02-28T14:33:45.365Z,531.00
2023-02-28T14:34:45.373Z,525.00
2023-02-28T14:35:45.423Z,533.00
2023-02-28T14:36:44.422Z,526.00
2023-02-28T14:37:45.441Z,529.00
2023-02-28T14:38:44.493Z,528.00
2023-02-28T14:39:45.514Z,526.00
2023-02-28T14:40:45.519Z,531.00
2023-02-28T14:41:44.551Z,530.00
2023-02-28T14:42:45.559Z,523.00
2023-02-28T14:43:45.545Z,520.00
2023-02-28T14:44:45.585Z,524.00
2023-02-28T14:45:45.591Z,527.00
2023-02-28T14:46:45.651Z,524.00
2023-02-28T14:47:45.645Z,528.00
2023-02-28T14:48:44.675Z,526.00
2023-02-28T14:49:45.675Z,528.00
2023-02-28T14:50:45.675Z,526.00
2023-02-28T14:51:45.729Z,525.00
2023-02-28T14:52:45.845Z,533.00
2023-02-28T14:53:44.756Z,526.00
2023-02-28T14:54:45.769Z,529.00
2023-02-28T14:55:45.805Z,529.00
2023-02-28T14:56:45.819Z,529.00
2023-02-28T14:57:45.892Z,522.00
2023-02-28T14:58:44.882Z,528.00
2023-02-28T14:59:45.921Z,526.00
2023-02-28T15:00:45.936Z,528.00
2023-02-28T15:01:46.012Z,524.00
2023-02-28T15:02:44.992Z,512.00
2023-02-28T15:03:45.007Z,511.00
2023-02-28T15:04:46.081Z,522.00
2023-02-28T15:05:46.032Z,510.00
2023-02-28T15:06:46.064Z,516.00
2023-02-28T15:07:46.110Z,516.00
2023-02-28T15:08:46.121Z,522.00
2023-02-28T15:09:45.140Z,514.00
2023-02-28T15:10:45.167Z,517.00
2023-02-28T15:11:46.185Z,514.00
2023-02-28T15:12:46.182Z,520.00
2023-02-28T15:13:46.216Z,513.00
2023-02-28T15:14:46.229Z,521.00
2023-02-28T15:16:00.925Z,517.00
2023-02-28T15:16:46.302Z,518.00
2023-02-28T15:17:45.248Z,516.00
2023-02-28T15:18:45.227Z,518.00
2023-02-28T15:19:46.290Z,513.00
2023-02-28T15:20:45.245Z,521.00
2023-02-28T15:21:46.215Z,517.00
2023-02-28T15:22:46.218Z,518.00
2023-02-28T15:23:46.212Z,516.00
2023-02-28T15:24:45.202Z,513.00
2023-02-28T15:25:45.196Z,512.00
2023-02-28T15:26:46.171Z,519.00
2023-02-28T15:27:46.186Z,515.00
2023-02-28T15:28:46.172Z,514.00
2023-02-28T15:29:46.159Z,517.00
2023-02-28T15:30:46.161Z,518.00
2023-02-28T15:31:57.051Z,515.00
2023-02-28T15:32:46.268Z,516.00
2023-02-28T15:33:46.148Z,517.00
2023-02-28T15:34:46.166Z,516.00
2023-02-28T15:35:46.143Z,516.00
2023-02-28T15:36:46.157Z,516.00
2023-02-28T15:37:46.152Z,514.00
2023-02-28T15:38:45.112Z,517.00
2023-02-28T15:39:46.125Z,514.00
2023-02-28T15:40:45.109Z,515.00
2023-02-28T15:41:45.090Z,517.00
2023-02-28T15:42:46.088Z,515.00
2023-02-28T15:43:46.130Z,520.00
2023-02-28T15:44:45.055Z,517.00
2023-02-28T15:45:46.123Z,516.00
2023-02-28T15:46:46.054Z,513.00
2023-02-28T15:47:46.054Z,514.00
2023-02-28T15:48:45.041Z,515.00
2023-02-28T15:49:45.458Z,518.00
2023-02-28T15:50:46.025Z,517.00
2023-02-28T15:51:46.014Z,514.00
2023-02-28T15:52:46.044Z,515.00
2023-02-28T15:53:45.011Z,515.00
2023-02-28T15:54:45.037Z,519.00
2023-02-28T15:55:44.990Z,512.00
2023-02-28T15:56:45.990Z,513.00
2023-02-28T15:57:45.976Z,511.00
2023-02-28T15:58:44.988Z,511.00
2023-02-28T15:59:44.958Z,512.00
2023-02-28T16:00:45.958Z,515.00
2023-02-28T16:01:46.039Z,520.00
2023-02-28T16:02:45.121Z,517.00
2023-02-28T16:03:46.000Z,509.00
2023-02-28T16:04:45.933Z,510.00
2023-02-28T16:05:45.925Z,507.00
2023-02-28T16:06:44.924Z,513.00
2023-02-28T16:07:45.907Z,510.00
2023-02-28T16:08:45.040Z,505.00
2023-02-28T16:09:45.909Z,515.00
2023-02-28T16:10:45.892Z,508.00
2023-02-28T16:11:45.890Z,512.00
2023-02-28T16:12:45.899Z,510.00
2023-02-28T16:13:45.886Z,505.00
2023-02-28T16:14:45.861Z,500.00
2023-02-28T16:15:45.861Z,501.00
2023-02-28T16:16:44.858Z,506.00
2023-02-28T16:17:45.844Z,508.00
2023-02-28T16:18:45.838Z,507.00
2023-02-28T16:19:45.835Z,505.00
2023-02-28T16:20:45.835Z,506.00
2023-02-28T16:21:44.827Z,511.00
2023-02-28T16:22:45.808Z,508.00
2023-02-28T16:23:45.812Z,509.00
2023-02-28T16:24:45.948Z,509.00
2023-02-28T16:25:45.869Z,510.00
2023-02-28T16:26:45.914Z,506.00
2023-02-28T16:27:45.989Z,507.00
2023-02-28T16:28:45.044Z,508.00
2023-02-28T16:29:46.103Z,504.00
